createdAt,value
2017-09-09T00:00:45.844Z,0.4
2017-09-09T00:01:44.883Z,0.4
2017-09-09T00:02:44.801Z,0.4
2017-09-09T00:03:43.719Z,0.4
2017-09-09T00:04:43.010Z,0.4
2017-09-09T00:05:42.424Z,0.4
2017-09-09T00:06:41.838Z,0.4
2017-09-09T00:07:11.818Z,0.4
2017-09-09T00:07:42.428Z,0.3
2017-09-09T00:08:40.593Z,0.4
2017-09-09T00:09:39.135Z,0.3
2017-09-09T00:10:38.683Z,0.3
2017-09-09T00:11:37.979Z,0.3
2017-09-09T00:12:37.268Z,0.3
2017-09-09T00:13:36.578Z,0.3
2017-09-09T00:14:36.002Z,0.3
2017-09-09T00:15:35.301Z,0.3
2017-09-09T00:16:34.588Z,0.3
2017-09-09T00:18:32.644Z,0.3
2017-09-09T00:19:32.441Z,0.4
2017-09-09T00:20:31.860Z,0.4
2017-09-09T00:21:30.530Z,0.4
2017-09-09T00:23:29.473Z,0.4
2017-09-09T00:24:28.764Z,0.4
2017-09-09T00:25:27.557Z,0.3
2017-09-09T00:26:27.484Z,0.3
2017-09-09T00:27:26.150Z,0.3
2017-09-09T00:28:25.949Z,0.3
2017-09-09T00:29:24.866Z,0.3
2017-09-09T00:31:23.427Z,0.3
2017-09-09T00:32:22.594Z,0.3
2017-09-09T00:33:22.393Z,0.4
2017-09-09T00:35:20.445Z,0.4
2017-09-09T00:36:19.984Z,0.4
2017-09-09T00:37:19.404Z,0.3
2017-09-09T00:38:18.815Z,0.4
2017-09-09T00:39:17.603Z,0.4
2017-09-09T00:40:16.766Z,0.4
2017-09-09T00:41:16.182Z,0.4
2017-09-09T00:42:15.476Z,0.4
2017-09-09T00:43:14.895Z,0.4
2017-09-09T00:44:14.185Z,0.4
2017-09-09T00:45:13.354Z,0.4
2017-09-09T00:46:12.774Z,0.3
2017-09-09T00:47:12.199Z,0.3
2017-09-09T00:48:11.239Z,0.3
2017-09-09T00:49:10.402Z,0.3
2017-09-09T00:50:09.822Z,0.3
2017-09-09T00:51:09.116Z,0.4
2017-09-09T00:52:08.661Z,0.3
2017-09-09T00:53:07.578Z,0.4
2017-09-09T00:54:06.620Z,0.3
2017-09-09T00:55:06.046Z,0.4
2017-09-09T00:56:05.478Z,0.4
2017-09-09T00:57:04.398Z,0.4
2017-09-09T00:58:04.196Z,0.4
2017-09-09T00:59:03.615Z,0.4
2017-09-09T01:00:02.406Z,0.4
2017-09-09T01:01:01.704Z,0.4
2017-09-09T01:03:00.258Z,0.3
2017-09-09T01:03:59.421Z,0.3
2017-09-09T01:04:58.706Z,0.3
2017-09-09T01:05:58.502Z,0.3
2017-09-09T01:06:57.291Z,0.3
2017-09-09T01:07:56.586Z,0.4
2017-09-09T01:08:56.367Z,0.4
2017-09-09T01:09:55.280Z,0.4
2017-09-09T01:10:54.581Z,0.4
2017-09-09T01:11:53.999Z,0.4
2017-09-09T01:12:53.549Z,0.3
2017-09-09T01:13:52.218Z,0.3
2017-09-09T01:14:51.385Z,0.3
2017-09-09T01:15:51.303Z,0.3
2017-09-09T01:16:50.216Z,0.3
2017-09-09T01:17:49.509Z,0.3
2017-09-09T01:19:48.192Z,0.4
2017-09-09T01:20:47.862Z,0.3
2017-09-09T01:21:46.400Z,0.3
2017-09-09T01:22:45.440Z,0.3
2017-09-09T01:23:45.242Z,0.3
2017-09-09T01:24:44.408Z,0.3
2017-09-09T01:26:43.345Z,0.2
2017-09-09T01:28:41.396Z,0.2
2017-09-09T01:29:40.695Z,0.2
2017-09-09T01:30:40.119Z,0.2
2017-09-09T01:31:39.279Z,0.2
2017-09-09T01:32:38.450Z,0.3
2017-09-09T01:33:37.869Z,0.2
2017-09-09T01:34:37.034Z,0.2
2017-09-09T01:35:36.325Z,0.2
2017-09-09T01:37:34.750Z,0.2
2017-09-09T01:38:34.421Z,0.2
2017-09-09T01:41:32.493Z,0.2
2017-09-09T01:42:31.660Z,0.2
2017-09-09T01:43:30.833Z,0.2
2017-09-09T01:44:29.751Z,0.2
2017-09-09T01:45:29.041Z,0.2
2017-09-09T01:46:28.465Z,0.2
2017-09-09T01:47:27.507Z,0.2
2017-09-09T01:48:26.801Z,0.2
2017-09-09T01:49:26.095Z,0.2
2017-09-09T01:50:25.765Z,0.2
2017-09-09T01:51:24.934Z,0.2
2017-09-09T01:52:24.352Z,0.2
2017-09-09T01:53:23.774Z,0.2
2017-09-09T01:54:22.685Z,0.2
2017-09-09T01:54:52.916Z,0.2
2017-09-09T01:55:23.653Z,0.2
2017-09-09T01:55:53.769Z,0.2
2017-09-09T01:56:24.378Z,0.2
2017-09-09T01:56:54.743Z,0.2
2017-09-09T01:57:25.094Z,0.2
2017-09-09T01:57:54.952Z,0.2
2017-09-09T01:59:18.903Z,0.2
2017-09-09T02:00:18.074Z,0.3
2017-09-09T02:01:17.489Z,0.3
2017-09-09T02:02:16.407Z,0.3
2017-09-09T02:03:16.199Z,0.2
2017-09-09T02:04:15.621Z,0.2
2017-09-09T02:05:15.044Z,0.2
2017-09-09T02:06:13.835Z,0.2
2017-09-09T02:07:13.128Z,0.2
2017-09-09T02:08:12.168Z,0.1
2017-09-09T02:09:12.091Z,0.3
2017-09-09T02:10:11.387Z,0.3
2017-09-09T02:11:10.304Z,0.3
2017-09-09T02:12:09.600Z,0.3
2017-09-09T02:13:08.894Z,0.3
2017-09-09T02:14:08.440Z,0.3
2017-09-09T02:15:07.510Z,0.2
2017-09-09T02:16:06.929Z,0.2
2017-09-09T03:17:50.707Z,0.4
2017-09-09T03:17:52.509Z,0.4
2017-09-09T03:18:22.992Z,0.6
2017-09-09T03:19:20.287Z,0.5
2017-09-09T03:20:19.837Z,0.5
2017-09-09T03:21:18.630Z,0.5
2017-09-09T03:22:17.929Z,0.5
2017-09-09T03:24:16.499Z,0.5
2017-09-09T03:25:15.799Z,0.5
2017-09-09T03:26:15.222Z,0.5
2017-09-09T03:28:13.910Z,0.5
2017-09-09T03:29:13.211Z,0.5
2017-09-09T03:30:12.267Z,0.4
2017-09-09T03:31:11.572Z,0.4
2017-09-09T03:32:10.741Z,0.4
2017-09-09T03:33:10.290Z,0.4
2017-09-09T03:34:08.958Z,0.4
2017-09-09T03:35:09.012Z,0.4
2017-09-09T03:36:07.689Z,0.4
2017-09-09T03:37:06.994Z,0.4
2017-09-09T03:38:06.420Z,0.4
2017-09-09T03:39:05.853Z,0.4
2017-09-09T03:40:04.897Z,0.4
2017-09-09T03:41:04.328Z,0.4
2017-09-09T03:42:03.627Z,0.4
2017-09-09T03:43:02.946Z,0.4
2017-09-09T03:45:01.396Z,0.4
2017-09-09T03:46:00.946Z,0.5
2017-09-09T03:46:59.989Z,0.4
2017-09-09T03:47:59.289Z,0.5
2017-09-09T03:48:58.593Z,0.5
2017-09-09T03:49:57.761Z,0.5
2017-09-09T03:50:56.935Z,0.5
2017-09-09T03:51:56.234Z,0.5
2017-09-09T03:52:55.653Z,0.5
2017-09-09T03:53:54.827Z,0.6
2017-09-09T03:54:53.886Z,0.5
2017-09-09T03:55:53.197Z,0.5
2017-09-09T03:56:53.005Z,0.5
2017-09-09T03:57:51.925Z,0.4
2017-09-09T03:58:51.229Z,0.5
2017-09-09T03:59:50.398Z,0.5
2017-09-09T04:00:49.445Z,0.5
2017-09-09T04:02:48.385Z,0.5
2017-09-09T04:03:47.429Z,0.4
2017-09-09T04:04:46.851Z,0.4
2017-09-09T04:05:46.147Z,0.4
2017-09-09T04:06:45.585Z,0.4
2017-09-09T04:07:44.892Z,0.4
2017-09-09T04:08:44.316Z,0.5
2017-09-09T04:09:43.114Z,0.5
2017-09-09T04:10:42.669Z,0.4
2017-09-09T04:11:42.095Z,0.4
2017-09-09T04:12:40.758Z,0.4
2017-09-09T04:13:40.683Z,0.4
2017-09-09T04:14:39.478Z,0.5
2017-09-09T04:15:38.778Z,0.5
2017-09-09T04:16:37.952Z,0.5
2017-09-09T04:17:37.379Z,0.5
2017-09-09T04:18:36.548Z,0.5
2017-09-09T04:19:35.728Z,0.4
2017-09-09T04:20:35.151Z,0.4
2017-09-09T04:21:34.580Z,0.4
2017-09-09T04:22:33.999Z,0.4
2017-09-09T04:23:33.300Z,0.4
2017-09-09T04:27:30.511Z,0.4
2017-09-09T04:28:29.685Z,0.4
2017-09-09T04:29:29.236Z,0.4
2017-09-09T04:30:28.031Z,0.4
2017-09-09T04:31:27.207Z,0.4
2017-09-09T04:32:26.506Z,0.4
2017-09-09T04:33:25.930Z,0.4
2017-09-09T04:34:25.231Z,0.4
2017-09-09T04:35:24.530Z,0.4
2017-09-09T04:36:23.826Z,0.4
2017-09-09T04:37:23.001Z,0.4
2017-09-09T04:38:22.179Z,0.4
2017-09-09T04:39:21.601Z,0.4
2017-09-09T04:40:20.653Z,0.4
2017-09-09T04:41:20.211Z,0.3
2017-09-09T04:42:19.509Z,0.4
2017-09-09T04:43:18.681Z,0.4
2017-09-09T04:44:18.358Z,0.4
2017-09-09T04:45:17.408Z,0.4
2017-09-09T04:46:16.207Z,0.4
2017-09-09T04:47:16.136Z,0.4
2017-09-09T04:48:15.057Z,0.4
2017-09-09T04:49:14.106Z,0.4
2017-09-09T04:50:13.288Z,0.4
2017-09-09T04:51:13.334Z,0.4
2017-09-09T04:52:12.270Z,0.4
2017-09-09T04:53:11.821Z,0.3
2017-09-09T04:54:10.888Z,0.3
2017-09-09T04:54:40.860Z,0.3
2017-09-09T04:55:11.465Z,0.4
2017-09-09T04:56:09.262Z,0.4
2017-09-09T04:57:08.438Z,0.4
2017-09-09T04:58:07.736Z,0.4
2017-09-09T04:59:07.161Z,0.3
2017-09-09T05:00:06.207Z,0.3
2017-09-09T05:01:05.511Z,0.3
2017-09-09T05:02:04.682Z,0.3
2017-09-09T05:03:03.731Z,0.3
2017-09-09T05:04:03.921Z,0.3
2017-09-09T05:05:02.842Z,0.3
2017-09-09T05:06:02.138Z,0.4
2017-09-09T05:07:01.567Z,0.4
2017-09-09T05:08:00.373Z,0.4
2017-09-09T05:08:59.299Z,0.4
2017-09-09T05:09:58.981Z,0.4
2017-09-09T05:10:58.153Z,0.4
2017-09-09T05:11:57.958Z,0.4
2017-09-09T05:12:56.628Z,0.4
2017-09-09T05:13:55.928Z,0.4
2017-09-09T05:14:55.480Z,0.4
2017-09-09T05:15:54.654Z,0.4
2017-09-09T05:16:53.825Z,0.4
2017-09-09T05:17:53.375Z,0.4
2017-09-09T05:18:52.674Z,0.4
2017-09-09T05:19:52.101Z,0.4
2017-09-09T05:20:51.654Z,0.3
2017-09-09T05:21:50.443Z,0.4
2017-09-09T05:22:49.365Z,0.3
2017-09-09T05:23:48.914Z,0.4
2017-09-09T05:24:47.966Z,0.4
2017-09-09T05:26:46.403Z,0.2
2017-09-09T05:27:46.203Z,0.2
2017-09-09T05:28:45.385Z,0.2
2017-09-09T05:29:44.933Z,0.2
2017-09-09T05:30:43.756Z,0.2
2017-09-09T05:31:43.055Z,0.2
2017-09-09T05:32:42.480Z,0.2
2017-09-09T05:33:42.027Z,0.2
2017-09-09T05:34:40.691Z,0.2
2017-09-09T05:35:40.625Z,0.2
2017-09-09T05:36:39.172Z,0.2
2017-09-09T05:37:39.106Z,0.2
2017-09-09T05:38:38.029Z,0.2
2017-09-09T05:40:36.851Z,0.2
2017-09-09T05:41:36.147Z,0.2
2017-09-09T05:42:35.197Z,0.2
2017-09-09T05:43:34.543Z,0.2
2017-09-09T05:44:33.964Z,0.2
2017-09-09T05:45:33.265Z,0.2
2017-09-09T05:46:32.691Z,0.2
2017-09-09T05:47:02.671Z,0.2
2017-09-09T05:47:33.162Z,0.2
2017-09-09T05:48:03.765Z,0.2
2017-09-09T05:48:34.251Z,0.1
2017-09-09T05:49:04.985Z,0.1
2017-09-09T05:50:29.323Z,0.1
2017-09-09T05:51:28.627Z,0.1
2017-09-09T05:52:27.674Z,0
2017-09-09T05:53:27.103Z,0.1
2017-09-09T05:54:26.020Z,0.1
2017-09-09T05:55:25.446Z,0.1
2017-09-09T05:56:24.748Z,0.1
2017-09-09T05:57:24.052Z,0.1
2017-09-09T05:59:22.747Z,0.1
2017-09-09T06:00:21.934Z,0.1
2017-09-09T06:01:21.237Z,0.1
2017-09-09T06:02:20.413Z,0.1
2017-09-09T06:03:20.217Z,0.1
2017-09-09T06:04:19.512Z,0.1
2017-09-09T06:05:18.310Z,0.2
2017-09-09T06:06:17.484Z,0.2
2017-09-09T06:07:16.664Z,0.2
2017-09-09T06:08:16.214Z,0.2
2017-09-09T06:09:15.390Z,0.2
2017-09-09T06:10:15.317Z,0.2
2017-09-09T06:11:13.993Z,0.2
2017-09-09T06:12:13.040Z,0.1
2017-09-09T06:13:12.846Z,0.1
2017-09-09T06:14:12.405Z,0.1
2017-09-09T06:15:11.086Z,-0.1
2017-09-09T06:16:10.525Z,-0.2
2017-09-09T06:17:09.824Z,-0.2
2017-09-09T06:18:08.994Z,-0.2
2017-09-09T06:19:08.432Z,-0.2
2017-09-09T06:20:07.735Z,0.1
2017-09-09T06:21:06.785Z,0.1
2017-09-09T06:22:05.957Z,0.2
2017-09-09T06:23:05.383Z,0.3
2017-09-09T06:24:04.688Z,0.4
2017-09-09T06:25:04.108Z,0.5
2017-09-09T06:26:03.167Z,0.5
2017-09-09T06:27:02.466Z,0.6
2017-09-09T06:28:02.018Z,0.6
2017-09-09T06:29:01.450Z,0.6
2017-09-09T06:29:32.199Z,0.6
2017-09-09T06:30:02.683Z,0.8
2017-09-09T06:30:59.339Z,0.8
2017-09-09T06:31:59.013Z,1.1
2017-09-09T06:32:58.186Z,1.3
2017-09-09T06:33:57.612Z,1.3
2017-09-09T06:34:56.916Z,1.4
2017-09-09T06:35:56.338Z,1.4
2017-09-09T06:36:55.129Z,1.5
2017-09-09T06:37:54.428Z,1.5
2017-09-09T06:38:54.015Z,1.4
2017-09-09T06:39:53.188Z,1.4
2017-09-09T06:40:52.499Z,1.4
2017-09-09T06:41:51.799Z,1.3
2017-09-09T06:42:51.233Z,1.2
2017-09-09T06:43:50.159Z,1.3
2017-09-09T06:45:48.848Z,1.3
2017-09-09T06:46:48.146Z,1.3
2017-09-09T06:47:47.319Z,1.3
2017-09-09T06:48:46.623Z,1.3
2017-09-09T06:49:45.678Z,1.3
2017-09-09T06:50:44.853Z,1.3
2017-09-09T06:51:44.655Z,1.2
2017-09-09T06:52:43.957Z,1.2
2017-09-09T06:53:42.504Z,1.3
2017-09-09T06:54:42.307Z,1.3
2017-09-09T06:55:41.607Z,1.2
2017-09-09T06:56:40.794Z,1.3
2017-09-09T06:57:40.093Z,1.3
2017-09-09T06:58:39.390Z,1.3
2017-09-09T06:59:38.442Z,1.2
2017-09-09T07:00:38.130Z,1.2
2017-09-09T07:01:37.308Z,1.2
2017-09-09T07:02:36.604Z,1.2
2017-09-09T07:03:36.151Z,1.3
2017-09-09T07:04:34.703Z,1.3
2017-09-09T07:05:34.511Z,1.3
2017-09-09T07:07:32.944Z,1.2
2017-09-09T07:08:32.133Z,1.2
2017-09-09T07:09:31.563Z,1.2
2017-09-09T07:10:30.983Z,1.2
2017-09-09T07:11:30.527Z,1.2
2017-09-09T07:12:29.577Z,1.1
2017-09-09T07:13:28.630Z,1.1
2017-09-09T07:14:27.936Z,1.1
2017-09-09T07:15:27.617Z,1
2017-09-09T07:16:26.421Z,1
2017-09-09T07:16:56.658Z,1
2017-09-09T07:17:27.018Z,1
2017-09-09T07:18:25.089Z,0.9
2017-09-09T07:19:23.888Z,0.8
2017-09-09T07:20:23.058Z,0.8
2017-09-09T07:41:07.961Z,0.5
2017-09-09T07:44:06.157Z,0.4
2017-09-09T07:45:05.326Z,0.4
2017-09-09T07:46:04.626Z,0.4
2017-09-09T07:47:03.924Z,0.4
2017-09-09T07:48:03.107Z,0.4
2017-09-09T07:49:02.286Z,0.5
2017-09-09T07:50:01.721Z,0.4
2017-09-09T07:51:00.533Z,0.2
2017-09-09T07:52:59.478Z,0
2017-09-09T07:54:57.405Z,0
2017-09-09T07:55:57.207Z,0
2017-09-09T07:57:55.266Z,0
2017-09-09T07:58:54.814Z,0
2017-09-09T08:00:53.377Z,0
2017-09-09T08:02:51.944Z,0
2017-09-09T08:03:50.991Z,0
2017-09-09T08:04:50.671Z,0
2017-09-09T08:05:49.719Z,0
2017-09-09T08:06:49.016Z,-0.1
2017-09-09T08:07:48.191Z,-0.1
2017-09-09T08:08:47.367Z,0
2017-09-09T08:09:46.798Z,0
2017-09-09T08:11:45.488Z,0
2017-09-09T08:12:44.789Z,0
2017-09-09T08:13:43.960Z,0
2017-09-09T08:15:42.143Z,0
2017-09-09T08:16:41.574Z,0
2017-09-09T08:17:40.619Z,0
2017-09-09T08:19:39.809Z,0
2017-09-09T08:20:38.480Z,0
2017-09-09T08:23:36.299Z,0.1
2017-09-09T08:24:35.470Z,0.1
2017-09-09T08:25:35.020Z,0.1
2017-09-09T08:26:34.443Z,0.1
2017-09-09T08:27:33.742Z,0.2
2017-09-09T08:29:32.306Z,0.2
2017-09-09T08:30:31.608Z,0.2
2017-09-09T08:31:30.905Z,0.2
2017-09-09T08:32:30.206Z,0.2
2017-09-09T08:33:28.876Z,0.2
2017-09-09T08:35:27.312Z,0.1
2017-09-09T08:36:27.247Z,0.1
2017-09-09T08:45:20.633Z,0.2
2017-09-09T08:46:19.810Z,0.1
2017-09-09T08:48:18.366Z,0.2
2017-09-09T08:50:16.933Z,0.2
2017-09-09T08:51:15.852Z,0.2
2017-09-09T08:52:15.527Z,0.2
2017-09-09T08:53:14.958Z,0.2
2017-09-09T08:54:13.756Z,0.2
2017-09-09T08:55:12.936Z,0.2
2017-09-09T08:56:12.872Z,0.2
2017-09-09T08:57:11.675Z,0.2
2017-09-09T08:58:11.101Z,0.2
2017-09-09T08:59:10.655Z,0.2
2017-09-09T09:00:09.840Z,0.3
2017-09-09T09:01:09.135Z,0.3
2017-09-09T09:03:07.190Z,0.4
2017-09-09T09:04:06.874Z,0.4
2017-09-09T09:05:06.331Z,0.4
2017-09-09T09:08:03.657Z,0.4
2017-09-09T09:11:01.483Z,0.4
2017-09-09T09:12:00.904Z,0.4
2017-09-09T09:13:00.078Z,0.4
2017-09-09T09:14:58.931Z,0.4
2017-09-09T09:15:58.361Z,0.4
2017-09-09T09:16:57.154Z,0.4
2017-09-09T09:17:56.458Z,0.4
2017-09-09T09:18:55.633Z,0.3
2017-09-09T09:19:54.935Z,0.3
2017-09-09T09:20:54.485Z,0.3
2017-09-09T09:21:53.788Z,0.3
2017-09-09T09:22:52.717Z,0.3
2017-09-09T09:24:51.405Z,0.3
2017-09-09T09:26:49.968Z,0.3
2017-09-09T09:27:49.012Z,0.4
2017-09-09T09:28:48.684Z,0.4
2017-09-09T09:29:47.988Z,0.4
2017-09-09T09:30:47.033Z,0.4
2017-09-09T09:31:46.589Z,0.4
2017-09-09T09:32:45.893Z,0.4
2017-09-09T09:33:45.318Z,0.4
2017-09-09T09:34:44.112Z,0.4
2017-09-09T09:35:43.411Z,0.5
2017-09-09T09:36:42.962Z,0.5
2017-09-09T09:37:42.389Z,0.5
2017-09-09T09:38:41.187Z,0.5
2017-09-09T09:39:40.614Z,0.5
2017-09-09T09:40:39.797Z,0.5
2017-09-09T09:42:38.488Z,0.4
2017-09-09T09:43:37.537Z,0.4
2017-09-09T09:44:36.579Z,0.5
2017-09-09T09:45:07.057Z,0.5
2017-09-09T09:47:34.681Z,0.5
2017-09-09T09:48:34.231Z,0.5
2017-09-09T09:49:33.402Z,0.6
2017-09-09T09:50:32.581Z,0.6
2017-09-09T09:51:31.636Z,0.6
2017-09-09T09:52:31.562Z,0.6
2017-09-09T09:53:30.860Z,0.6
2017-09-09T09:54:30.315Z,0.5
2017-09-09T09:56:28.616Z,0.5
2017-09-09T09:58:26.927Z,0.5
2017-09-09T10:05:21.921Z,0.6
2017-09-09T10:06:21.464Z,0.6
2017-09-09T10:09:19.163Z,0.6
2017-09-09T10:10:18.337Z,0.7
2017-09-09T10:12:17.021Z,0.6
2017-09-09T10:16:14.098Z,0.7
2017-09-09T10:17:13.528Z,0.7
2017-09-09T10:18:13.072Z,0.8
2017-09-09T10:19:11.997Z,0.8
2017-09-09T10:20:11.047Z,0.8
2017-09-09T10:21:10.476Z,0.8
2017-09-09T10:22:09.648Z,0.8
2017-09-09T10:23:09.194Z,0.8
2017-09-09T10:24:08.621Z,0.8
2017-09-09T10:25:07.800Z,0.8
2017-09-09T10:26:07.102Z,0.9
2017-09-09T10:27:06.524Z,0.9
2017-09-09T10:28:05.193Z,0.9
2017-09-09T10:29:05.248Z,0.8
2017-09-09T10:30:03.925Z,0.8
2017-09-09T10:32:02.490Z,0.8
2017-09-09T10:33:02.296Z,0.8
2017-09-09T10:35:00.357Z,0.9
2017-09-09T10:36:59.043Z,1.2
2017-09-09T10:37:58.343Z,1.3
2017-09-09T10:38:28.956Z,1.3
2017-09-09T10:38:59.315Z,1.3
2017-09-09T10:42:55.274Z,1.4
2017-09-09T10:43:54.578Z,1.4
2017-09-09T10:45:52.631Z,1.4
2017-09-09T10:46:52.309Z,1.1
2017-09-09T10:48:50.615Z,0.9
2017-09-09T10:51:48.689Z,0.7
2017-09-09T10:52:47.993Z,0.7
2017-09-09T10:54:46.679Z,0.7
2017-09-09T10:55:16.539Z,0.7
2017-09-09T10:56:45.035Z,0.6
2017-09-09T10:57:44.206Z,0.7
2017-09-09T10:58:43.765Z,0.7
2017-09-09T11:00:42.582Z,0.7
2017-09-09T11:01:41.879Z,0.7
2017-09-09T11:02:41.054Z,0.7
2017-09-09T11:03:40.361Z,0.7
2017-09-09T11:04:39.784Z,0.7
2017-09-09T11:07:37.236Z,0.8
2017-09-09T11:08:36.409Z,0.8
2017-09-09T11:10:35.224Z,0.8
2017-09-09T11:11:34.520Z,0.8
2017-09-09T11:12:33.569Z,0.8
2017-09-09T11:13:33.115Z,0.8
2017-09-09T11:15:31.839Z,0.9
2017-09-09T11:16:31.396Z,0.9
2017-09-09T11:17:30.314Z,0.9
2017-09-09T11:18:29.238Z,1.4
2017-09-09T11:19:29.163Z,1.3
2017-09-09T11:20:28.078Z,1.6
2017-09-09T11:22:26.884Z,2
2017-09-09T11:24:25.442Z,2.1
2017-09-09T11:25:24.741Z,2
2017-09-09T11:26:24.295Z,2
2017-09-09T11:28:23.106Z,2
2017-09-09T11:29:21.907Z,2
2017-09-09T11:31:20.717Z,2.1
2017-09-09T11:37:16.320Z,2.1
2017-09-09T11:37:46.810Z,2.1
2017-09-09T11:40:14.563Z,2
2017-09-09T11:41:13.983Z,2
2017-09-09T11:42:13.538Z,2
2017-09-09T11:43:12.455Z,2.1
2017-09-09T11:44:11.795Z,2.1
2017-09-09T11:45:11.106Z,2
2017-09-09T11:46:10.666Z,2
2017-09-09T11:47:09.959Z,2
2017-09-09T11:48:09.134Z,2
2017-09-09T11:49:08.431Z,1.9
2017-09-09T11:50:07.858Z,2
2017-09-09T11:51:06.408Z,2
2017-09-09T11:57:02.534Z,1.8
2017-09-09T11:58:01.956Z,1.8
2017-09-09T11:59:01.288Z,1.7
2017-09-09T12:00:00.705Z,1.6
2017-09-09T12:00:59.882Z,1.6
2017-09-09T12:03:57.704Z,1.3
2017-09-09T12:04:56.998Z,1.2
2017-09-09T12:05:56.053Z,1.3
2017-09-09T12:06:55.856Z,1.1
2017-09-09T12:07:55.153Z,1.1
2017-09-09T12:08:54.451Z,1.1
2017-09-09T12:09:53.623Z,1.1
2017-09-09T12:14:50.595Z,0.9
2017-09-09T12:15:49.643Z,0.9
2017-09-09T12:16:49.071Z,0.8
2017-09-09T12:18:47.256Z,0.6
2017-09-09T12:19:46.430Z,0.6
2017-09-09T12:21:45.368Z,0.4
2017-09-09T12:23:43.934Z,0.4
2017-09-09T12:24:42.990Z,0.6
2017-09-09T12:27:41.193Z,0.7
2017-09-09T12:28:40.616Z,0.7
2017-09-09T12:29:39.413Z,0.7
2017-09-09T12:30:38.588Z,0.6
2017-09-09T12:31:38.264Z,0.6
2017-09-09T12:32:37.446Z,0.6
2017-09-09T12:34:36.010Z,0.8
2017-09-09T12:35:35.309Z,0.9
2017-09-09T12:37:34.011Z,1
2017-09-09T12:38:33.185Z,0.9
2017-09-09T12:39:32.366Z,0.9
2017-09-09T12:40:32.172Z,0.9
2017-09-09T12:41:31.377Z,0.9
2017-09-09T12:42:30.551Z,0.9
2017-09-09T12:43:29.728Z,0.9
2017-09-09T12:44:29.028Z,1
2017-09-09T12:45:28.451Z,1
2017-09-09T12:46:27.618Z,1
2017-09-09T12:47:26.922Z,1
2017-09-09T12:48:26.098Z,1
2017-09-09T12:51:24.306Z,0.9
2017-09-09T12:52:23.476Z,1
2017-09-09T12:53:22.906Z,1
2017-09-09T12:54:22.463Z,1
2017-09-09T12:55:21.266Z,1
2017-09-09T12:56:20.567Z,1
2017-09-09T12:57:19.865Z,1
2017-09-09T12:58:19.040Z,0.9
2017-09-09T12:59:18.338Z,0.9
2017-09-09T13:00:18.015Z,0.8
2017-09-09T13:01:17.309Z,0.8
2017-09-09T13:02:16.487Z,0.7
2017-09-09T13:03:15.663Z,0.6
2017-09-09T13:04:14.838Z,0.5
2017-09-09T13:05:14.012Z,0.5
2017-09-09T13:06:13.435Z,0.6
2017-09-09T13:07:12.990Z,0.4
2017-09-09T13:08:12.287Z,0.4
2017-09-09T13:09:11.343Z,0.4
2017-09-09T13:10:10.531Z,0.5
2017-09-09T13:11:09.833Z,0.5
2017-09-09T13:12:09.760Z,0.6
2017-09-09T13:13:08.805Z,0.7
2017-09-09T13:14:07.858Z,0.9
2017-09-09T13:15:06.902Z,0.9
2017-09-09T13:18:04.982Z,1.3
2017-09-09T13:19:04.357Z,1.3
2017-09-09T13:20:03.784Z,1.3
2017-09-09T13:21:03.210Z,1.3
2017-09-09T13:22:02.267Z,1.3
2017-09-09T13:25:00.218Z,1.4
2017-09-09T13:26:59.030Z,1.4
2017-09-09T13:27:58.202Z,1.3
2017-09-09T13:28:57.500Z,1.3
2017-09-09T13:29:56.556Z,1.4
2017-09-09T13:30:55.976Z,1.3
2017-09-09T13:31:55.155Z,1.3
2017-09-09T13:32:54.213Z,1.4
2017-09-09T13:33:53.502Z,1.4
2017-09-09T13:34:53.427Z,1.5
2017-09-09T13:35:52.353Z,1.4
2017-09-09T13:36:51.773Z,1.3
2017-09-09T13:37:50.941Z,1.3
2017-09-09T13:38:50.234Z,1.1
2017-09-09T13:39:49.539Z,1
2017-09-09T13:40:48.961Z,0.9
2017-09-09T13:41:48.133Z,0.7
2017-09-09T13:42:47.557Z,0.6
2017-09-09T13:43:46.731Z,0.6
2017-09-09T13:44:46.157Z,0.6
2017-09-09T13:45:45.336Z,0.5
2017-09-09T13:46:44.894Z,0.5
2017-09-09T13:47:44.312Z,0.5
2017-09-09T13:48:43.867Z,0.5
2017-09-09T13:49:42.665Z,0.5
2017-09-09T13:50:42.102Z,0.5
2017-09-09T13:51:41.401Z,0.5
2017-09-09T13:52:40.702Z,0.6
2017-09-09T13:53:39.609Z,0.6
2017-09-09T13:54:39.410Z,0.7
2017-09-09T13:55:38.471Z,0.7
2017-09-09T13:56:09.215Z,0.7
2017-09-09T13:56:39.711Z,0.7
2017-09-09T13:57:10.449Z,0.7
2017-09-09T13:57:40.434Z,0.8
2017-09-09T13:58:10.798Z,0.8
2017-09-09T13:58:41.545Z,0.8
2017-09-09T13:59:12.157Z,0.8
2017-09-09T13:59:42.261Z,0.7
2017-09-09T14:00:12.999Z,0.7
2017-09-09T14:01:34.194Z,0.6
2017-09-09T14:02:33.861Z,0.6
2017-09-09T14:03:33.039Z,0.7
2017-09-09T14:04:31.961Z,0.6
2017-09-09T14:05:31.643Z,0.6
2017-09-09T14:06:30.814Z,0.6
2017-09-09T14:07:30.112Z,0.6
2017-09-09T14:08:29.661Z,0.5
2017-09-09T14:09:29.083Z,0.6
2017-09-09T14:10:28.386Z,0.6
2017-09-09T14:10:58.756Z,0.6
2017-09-09T14:11:28.614Z,0.6
2017-09-09T14:13:26.288Z,0.7
2017-09-09T14:14:25.461Z,0.7
2017-09-09T14:15:25.011Z,0.7
2017-09-09T14:16:24.436Z,0.6
2017-09-09T14:17:23.493Z,0.6
2017-09-09T14:18:22.670Z,0.6
2017-09-09T14:19:21.843Z,0.7
2017-09-09T14:20:22.016Z,0.7
2017-09-09T14:21:20.558Z,0.6
2017-09-09T14:22:19.981Z,0.5
2017-09-09T14:23:19.404Z,0.5
2017-09-09T14:24:18.586Z,0.5
2017-09-09T14:25:18.012Z,0.6
2017-09-09T14:26:17.313Z,0.6
2017-09-09T14:27:16.492Z,0.5
2017-09-09T14:29:15.054Z,0.5
2017-09-09T14:30:14.732Z,0.5
2017-09-09T14:31:13.913Z,0.5
2017-09-09T14:32:13.086Z,0.5
2017-09-09T14:33:12.889Z,0.5
2017-09-09T14:34:11.563Z,0.5
2017-09-09T14:35:11.242Z,0.5
2017-09-09T14:36:10.417Z,0.5
2017-09-09T14:37:10.093Z,0.5
2017-09-09T14:38:09.392Z,0.5
2017-09-09T14:39:08.693Z,0.5
2017-09-09T14:40:07.867Z,0.5
2017-09-09T14:41:07.042Z,0.6
2017-09-09T14:43:05.858Z,0.5
2017-09-09T14:44:05.156Z,0.5
2017-09-09T14:46:03.850Z,0.5
2017-09-09T14:47:03.026Z,0.5
2017-09-09T14:48:02.452Z,0.5
2017-09-09T14:49:01.498Z,0.5
2017-09-09T14:50:00.674Z,0.6
2017-09-09T14:51:00.351Z,0.6
2017-09-09T14:51:30.711Z,0.6
2017-09-09T14:52:01.205Z,0.6
2017-09-09T14:52:58.872Z,0.6
2017-09-09T14:53:58.810Z,0.6
2017-09-09T14:54:57.361Z,0.6
2017-09-09T14:56:56.176Z,0.6
2017-09-09T14:57:55.983Z,0.6
2017-09-09T14:58:54.776Z,0.5
2017-09-09T14:59:54.137Z,0.5
2017-09-09T15:00:53.823Z,0.5
2017-09-09T15:01:53.002Z,0.5
2017-09-09T15:02:52.307Z,0.5
2017-09-09T15:03:51.607Z,0.5
2017-09-09T15:04:51.042Z,0.4
2017-09-09T15:05:50.346Z,0.4
2017-09-09T15:06:49.518Z,0.4
2017-09-09T15:08:48.078Z,0.4
2017-09-09T15:09:47.507Z,0.5
2017-09-09T15:10:46.690Z,0.5
2017-09-09T15:11:46.374Z,0.5
2017-09-09T15:12:45.805Z,0.5
2017-09-09T15:13:44.601Z,0.5
2017-09-09T15:14:44.402Z,0.5
2017-09-09T15:15:43.576Z,0.6
2017-09-09T15:16:43.133Z,0.6
2017-09-09T15:17:41.674Z,0.6
2017-09-09T15:18:41.477Z,0.4
2017-09-09T15:19:40.522Z,0.4
2017-09-09T15:20:40.068Z,0.4
2017-09-09T15:21:39.117Z,0.5
2017-09-09T15:22:38.801Z,0.5
2017-09-09T15:23:38.365Z,0.5
2017-09-09T15:24:37.037Z,0.5
2017-09-09T15:25:37.220Z,0.4
2017-09-09T15:26:36.020Z,0.4
2017-09-09T15:27:35.317Z,0.4
2017-09-09T15:28:34.497Z,0.4
2017-09-09T15:29:33.670Z,0.5
2017-09-09T15:30:33.477Z,0.4
2017-09-09T15:31:32.654Z,0.4
2017-09-09T15:32:31.954Z,0.4
2017-09-09T15:33:31.135Z,0.4
2017-09-09T15:34:30.559Z,0.5
2017-09-09T15:35:29.867Z,0.4
2017-09-09T15:36:29.039Z,0.4
2017-09-09T15:37:28.460Z,0.4
2017-09-09T15:38:27.761Z,0.5
2017-09-09T15:39:27.064Z,0.5
2017-09-09T15:40:26.236Z,0.4
2017-09-09T15:41:25.533Z,0.5
2017-09-09T15:42:24.833Z,0.5
2017-09-09T15:43:24.509Z,0.6
2017-09-09T15:45:23.071Z,0.5
2017-09-09T15:46:22.503Z,0.5
2017-09-09T15:47:21.806Z,0.5
2017-09-09T15:47:52.290Z,0.5
2017-09-09T15:49:20.277Z,0.5
2017-09-09T15:50:19.699Z,0.5
2017-09-09T15:51:19.127Z,0.4
2017-09-09T15:52:18.422Z,0.4
2017-09-09T15:53:17.863Z,0.4
2017-09-09T15:54:16.781Z,0.4
2017-09-09T15:55:15.952Z,0.4
2017-09-09T15:56:15.262Z,0.4
2017-09-09T15:57:15.189Z,0.4
2017-09-09T15:58:14.236Z,0.3
2017-09-09T15:59:13.819Z,0.4
2017-09-09T16:01:11.883Z,0.4
2017-09-09T16:03:10.447Z,0.4
2017-09-09T16:04:10.505Z,0.4
2017-09-09T16:05:09.301Z,0.4
2017-09-09T16:06:08.737Z,0.4
2017-09-09T16:07:07.909Z,0.4
2017-09-09T16:09:06.980Z,0.3
2017-09-09T16:10:05.905Z,0.3
2017-09-09T16:11:05.338Z,0.3
2017-09-09T16:12:04.636Z,0.3
2017-09-09T16:13:04.066Z,0.3
2017-09-09T16:14:03.402Z,0.4
2017-09-09T16:15:02.493Z,0.4
2017-09-09T16:16:01.669Z,0.4
2017-09-09T16:17:00.847Z,0.4
2017-09-09T16:18:00.146Z,0.4
2017-09-09T16:18:59.952Z,0.4
2017-09-09T16:19:58.878Z,0.3
2017-09-09T16:20:58.555Z,0.3
2017-09-09T16:21:57.993Z,0.3
2017-09-09T16:22:56.795Z,0.4
2017-09-09T16:23:56.469Z,0.4
2017-09-09T16:24:55.773Z,0.3
2017-09-09T16:25:55.077Z,0.3
2017-09-09T16:26:54.504Z,0.3
2017-09-09T16:27:53.176Z,0.3
2017-09-09T16:28:52.725Z,0.3
2017-09-09T16:29:51.903Z,0.3
2017-09-09T16:30:51.461Z,0.3
2017-09-09T16:31:50.757Z,0.3
2017-09-09T16:32:49.926Z,0.3
2017-09-09T16:33:49.979Z,0.3
2017-09-09T16:34:48.906Z,0.3
2017-09-09T16:37:46.481Z,0.2
2017-09-09T16:40:44.433Z,0.2
2017-09-09T16:41:15.171Z,0.2
2017-09-09T16:41:45.152Z,0.2
2017-09-09T16:42:16.019Z,0.2
2017-09-09T16:43:42.360Z,0.2
2017-09-09T16:45:41.300Z,0.3
2017-09-09T16:46:40.855Z,0.3
2017-09-09T16:47:39.401Z,0.3
2017-09-09T16:48:38.951Z,0.3
2017-09-09T16:49:38.125Z,0.3
2017-09-09T16:50:37.812Z,0.3
2017-09-09T16:51:36.982Z,0.3
2017-09-09T16:52:36.412Z,0.3
2017-09-09T16:53:35.588Z,0.3
2017-09-09T16:54:35.136Z,0.3
2017-09-09T16:55:34.061Z,0.3
2017-09-09T16:56:33.365Z,0.3
2017-09-09T16:57:33.176Z,0.3